Terminal Aerodrome Forecast
Issued by NWS

Home | Current Version | Previous Version | Text Only | Print | Product List | Glossary Off
Versions: 1 2 3 4 5 6 7 8 9 10 11 12 13

000
FTUS44 KTSA 231722
TAFXNA
TAF
KXNA 231722Z 2318/2418 33010KT P6SM BKN035
      TEMPO 2319/2323 6SM -SHRA BKN025
     FM232300 32010G16KT P6SM BKN040
     FM240100 31005KT P6SM BKN050
     FM240900 28004KT P6SM BKN015
      TEMPO 2410/2414 BKN007
     FM241600 32012G18KT P6SM BKN025=

USA.gov is the U.S. government's official web portal to all federal, state and local government web resources and services.